sensor_id;sensor_type;location;lat;lon;timestamp;P1;durP1;ratioP1;P2;durP2;ratioP2
26686;SDS011;14298;50.900;4.648;2022-11-04T00:00:27;1.40;;;0.70;;
26686;SDS011;14298;50.900;4.648;2022-11-04T00:02:56;0.63;;;0.43;;
26686;SDS011;14298;50.900;4.648;2022-11-04T00:05:24;0.60;;;0.60;;
26686;SDS011;14298;50.900;4.648;2022-11-04T00:07:52;0.60;;;0.60;;
26686;SDS011;14298;50.900;4.648;2022-11-04T00:10:39;1.37;;;1.03;;
26686;SDS011;14298;50.900;4.648;2022-11-04T00:13:27;0.40;;;0.40;;
26686;SDS011;14298;50.900;4.648;2022-11-04T00:15:59;0.73;;;0.73;;
26686;SDS011;14298;50.900;4.648;2022-11-04T00:18:46;0.53;;;0.53;;
26686;SDS011;14298;50.900;4.648;2022-11-04T00:21:14;0.30;;;0.30;;
26686;SDS011;14298;50.900;4.648;2022-11-04T00:24:00;0.60;;;0.60;;
26686;SDS011;14298;50.900;4.648;2022-11-04T00:26:47;2.83;;;0.70;;
26686;SDS011;14298;50.900;4.648;2022-11-04T00:29:33;0.70;;;0.70;;
26686;SDS011;14298;50.900;4.648;2022-11-04T00:32:01;0.97;;;0.87;;
26686;SDS011;14298;50.900;4.648;2022-11-04T00:34:48;1.90;;;0.87;;
26686;SDS011;14298;50.900;4.648;2022-11-04T00:37:16;0.53;;;0.53;;
26686;SDS011;14298;50.900;4.648;2022-11-04T00:39:44;0.60;;;0.60;;
26686;SDS011;14298;50.900;4.648;2022-11-04T00:42:13;0.50;;;0.50;;
26686;SDS011;14298;50.900;4.648;2022-11-04T00:44:41;0.80;;;0.67;;
26686;SDS011;14298;50.900;4.648;2022-11-04T00:47:09;0.40;;;0.40;;
26686;SDS011;14298;50.900;4.648;2022-11-04T00:49:38;1.17;;;1.07;;
26686;SDS011;14298;50.900;4.648;2022-11-04T00:52:06;1.13;;;0.90;;
26686;SDS011;14298;50.900;4.648;2022-11-04T00:54:34;0.40;;;0.40;;
26686;SDS011;14298;50.900;4.648;2022-11-04T00:57:02;0.63;;;0.63;;
26686;SDS011;14298;50.900;4.648;2022-11-04T00:59:31;0.70;;;0.70;;
26686;SDS011;14298;50.900;4.648;2022-11-04T01:01:59;0.60;;;0.60;;
26686;SDS011;14298;50.900;4.648;2022-11-04T01:04:27;1.30;;;0.70;;
26686;SDS011;14298;50.900;4.648;2022-11-04T01:06:56;0.70;;;0.70;;
26686;SDS011;14298;50.900;4.648;2022-11-04T01:12:12;0.40;;;0.40;;
26686;SDS011;14298;50.900;4.648;2022-11-04T01:14:41;0.70;;;0.70;;
26686;SDS011;14298;50.900;4.648;2022-11-04T01:17:09;0.80;;;0.80;;
26686;SDS011;14298;50.900;4.648;2022-11-04T01:19:38;0.73;;;0.60;;
26686;SDS011;14298;50.900;4.648;2022-11-04T01:22:06;0.50;;;0.50;;
26686;SDS011;14298;50.900;4.648;2022-11-04T01:27:22;0.40;;;0.40;;
26686;SDS011;14298;50.900;4.648;2022-11-04T01:29:51;0.47;;;0.47;;
26686;SDS011;14298;50.900;4.648;2022-11-04T01:32:19;0.33;;;0.33;;
26686;SDS011;14298;50.900;4.648;2022-11-04T01:34:47;7.60;;;0.67;;
26686;SDS011;14298;50.900;4.648;2022-11-04T01:37:15;0.37;;;0.37;;
26686;SDS011;14298;50.900;4.648;2022-11-04T01:39:44;0.80;;;0.80;;
26686;SDS011;14298;50.900;4.648;2022-11-04T01:42:12;0.50;;;0.50;;
26686;SDS011;14298;50.900;4.648;2022-11-04T01:44:44;0.57;;;0.57;;
26686;SDS011;14298;50.900;4.648;2022-11-04T01:47:16;0.57;;;0.57;;
26686;SDS011;14298;50.900;4.648;2022-11-04T01:52:37;0.40;;;0.40;;
26686;SDS011;14298;50.900;4.648;2022-11-04T01:55:09;0.70;;;0.70;;
26686;SDS011;14298;50.900;4.648;2022-11-04T01:57:39;0.70;;;0.70;;
26686;SDS011;14298;50.900;4.648;2022-11-04T02:00:09;0.40;;;0.40;;
26686;SDS011;14298;50.900;4.648;2022-11-04T02:02:42;0.40;;;0.40;;
26686;SDS011;14298;50.900;4.648;2022-11-04T02:05:12;6.13;;;1.00;;
26686;SDS011;14298;50.900;4.648;2022-11-04T02:07:40;1.27;;;0.80;;
26686;SDS011;14298;50.900;4.648;2022-11-04T02:10:09;0.50;;;0.50;;
26686;SDS011;14298;50.900;4.648;2022-11-04T02:12:38;0.63;;;0.43;;
26686;SDS011;14298;50.900;4.648;2022-11-04T02:18:23;4.10;;;0.60;;
26686;SDS011;14298;50.900;4.648;2022-11-04T02:23:40;0.73;;;0.73;;
26686;SDS011;14298;50.900;4.648;2022-11-04T02:37:15;1.13;;;1.07;;
26686;SDS011;14298;50.900;4.648;2022-11-04T02:42:36;4.23;;;1.40;;
26686;SDS011;14298;50.900;4.648;2022-11-04T02:45:09;0.40;;;0.40;;
26686;SDS011;14298;50.900;4.648;2022-11-04T02:47:37;0.70;;;0.70;;
26686;SDS011;14298;50.900;4.648;2022-11-04T02:50:13;1.13;;;1.07;;
26686;SDS011;14298;50.900;4.648;2022-11-04T02:55:51;0.60;;;0.60;;
26686;SDS011;14298;50.900;4.648;2022-11-04T03:01:06;6.40;;;0.97;;
26686;SDS011;14298;50.900;4.648;2022-11-04T03:03:40;0.73;;;0.73;;
26686;SDS011;14298;50.900;4.648;2022-11-04T03:06:10;1.60;;;1.13;;
26686;SDS011;14298;50.900;4.648;2022-11-04T03:08:42;0.50;;;0.50;;
26686;SDS011;14298;50.900;4.648;2022-11-04T03:11:14;0.70;;;0.70;;
26686;SDS011;14298;50.900;4.648;2022-11-04T03:13:45;0.50;;;0.50;;
26686;SDS011;14298;50.900;4.648;2022-11-04T03:22:03;1.20;;;1.10;;
26686;SDS011;14298;50.900;4.648;2022-11-04T03:24:32;1.27;;;0.60;;
26686;SDS011;14298;50.900;4.648;2022-11-04T03:27:01;1.33;;;1.23;;
26686;SDS011;14298;50.900;4.648;2022-11-04T03:29:45;5.60;;;0.70;;
26686;SDS011;14298;50.900;4.648;2022-11-04T03:34:43;0.83;;;0.77;;
26686;SDS011;14298;50.900;4.648;2022-11-04T03:37:12;0.83;;;0.83;;
26686;SDS011;14298;50.900;4.648;2022-11-04T03:39:40;0.30;;;0.30;;
26686;SDS011;14298;50.900;4.648;2022-11-04T03:42:09;2.67;;;1.13;;
26686;SDS011;14298;50.900;4.648;2022-11-04T03:44:52;0.60;;;0.60;;
26686;SDS011;14298;50.900;4.648;2022-11-04T03:47:24;0.60;;;0.60;;
26686;SDS011;14298;50.900;4.648;2022-11-04T03:49:56;0.73;;;0.73;;
26686;SDS011;14298;50.900;4.648;2022-11-04T03:52:25;0.63;;;0.63;;
26686;SDS011;14298;50.900;4.648;2022-11-04T03:54:54;0.60;;;0.60;;
26686;SDS011;14298;50.900;4.648;2022-11-04T03:57:26;0.50;;;0.50;;
26686;SDS011;14298;50.900;4.648;2022-11-04T04:00:01;0.73;;;0.73;;
26686;SDS011;14298;50.900;4.648;2022-11-04T04:05:39;0.80;;;0.80;;
26686;SDS011;14298;50.900;4.648;2022-11-04T04:08:29;0.93;;;0.93;;
26686;SDS011;14298;50.900;4.648;2022-11-04T04:13:34;1.33;;;1.10;;
26686;SDS011;14298;50.900;4.648;2022-11-04T04:16:15;1.50;;;0.77;;
26686;SDS011;14298;50.900;4.648;2022-11-04T04:21:44;6.40;;;1.03;;
26686;SDS011;14298;50.900;4.648;2022-11-04T04:24:20;0.67;;;0.67;;
26686;SDS011;14298;50.900;4.648;2022-11-04T04:27:09;0.60;;;0.60;;
26686;SDS011;14298;50.900;4.648;2022-11-04T04:29:56;0.67;;;0.67;;
26686;SDS011;14298;50.900;4.648;2022-11-04T04:32:34;0.30;;;0.30;;
26686;SDS011;14298;50.900;4.648;2022-11-04T04:35:05;0.50;;;0.50;;
26686;SDS011;14298;50.900;4.648;2022-11-04T04:37:53;0.50;;;0.50;;
26686;SDS011;14298;50.900;4.648;2022-11-04T04:40:26;0.60;;;0.60;;
26686;SDS011;14298;50.900;4.648;2022-11-04T04:43:15;0.63;;;0.53;;
26686;SDS011;14298;50.900;4.648;2022-11-04T04:46:01;0.50;;;0.50;;
26686;SDS011;14298;50.900;4.648;2022-11-04T04:48:30;2.30;;;0.87;;
26686;SDS011;14298;50.900;4.648;2022-11-04T04:50:58;0.40;;;0.40;;
26686;SDS011;14298;50.900;4.648;2022-11-04T04:53:27;2.07;;;0.80;;
26686;SDS011;14298;50.900;4.648;2022-11-04T04:55:56;1.33;;;1.00;;
26686;SDS011;14298;50.900;4.648;2022-11-04T04:58:24;0.50;;;0.50;;
26686;SDS011;14298;50.900;4.648;2022-11-04T05:00:52;0.50;;;0.50;;
26686;SDS011;14298;50.900;4.648;2022-11-04T05:03:20;1.03;;;0.97;;
26686;SDS011;14298;50.900;4.648;2022-11-04T05:05:51;0.80;;;0.80;;
26686;SDS011;14298;50.900;4.648;2022-11-04T05:08:19;0.70;;;0.70;;
26686;SDS011;14298;50.900;4.648;2022-11-04T05:10:47;7.43;;;0.90;;
26686;SDS011;14298;50.900;4.648;2022-11-04T05:13:16;0.60;;;0.60;;
26686;SDS011;14298;50.900;4.648;2022-11-04T05:15:55;0.50;;;0.50;;
26686;SDS011;14298;50.900;4.648;2022-11-04T05:18:25;0.77;;;0.77;;
26686;SDS011;14298;50.900;4.648;2022-11-04T05:20:53;1.47;;;0.90;;
26686;SDS011;14298;50.900;4.648;2022-11-04T05:23:22;1.57;;;0.63;;
26686;SDS011;14298;50.900;4.648;2022-11-04T05:25:50;4.10;;;0.70;;
26686;SDS011;14298;50.900;4.648;2022-11-04T05:28:18;0.40;;;0.40;;
26686;SDS011;14298;50.900;4.648;2022-11-04T05:30:47;0.50;;;0.50;;
26686;SDS011;14298;50.900;4.648;2022-11-04T05:36:09;0.50;;;0.50;;
26686;SDS011;14298;50.900;4.648;2022-11-04T05:38:40;1.83;;;0.83;;
26686;SDS011;14298;50.900;4.648;2022-11-04T05:41:10;4.23;;;0.90;;
26686;SDS011;14298;50.900;4.648;2022-11-04T05:43:40;0.67;;;0.67;;
26686;SDS011;14298;50.900;4.648;2022-11-04T05:46:08;0.80;;;0.80;;
26686;SDS011;14298;50.900;4.648;2022-11-04T05:48:37;0.40;;;0.40;;
26686;SDS011;14298;50.900;4.648;2022-11-04T05:51:05;0.43;;;0.43;;
26686;SDS011;14298;50.900;4.648;2022-11-04T05:53:33;0.37;;;0.37;;
26686;SDS011;14298;50.900;4.648;2022-11-04T05:56:02;1.00;;;1.00;;
26686;SDS011;14298;50.900;4.648;2022-11-04T05:58:30;0.97;;;0.90;;
26686;SDS011;14298;50.900;4.648;2022-11-04T06:03:56;11.53;;;0.90;;
26686;SDS011;14298;50.900;4.648;2022-11-04T06:06:27;0.93;;;0.67;;
26686;SDS011;14298;50.900;4.648;2022-11-04T06:08:57;2.57;;;1.03;;
26686;SDS011;14298;50.900;4.648;2022-11-04T06:11:26;0.60;;;0.60;;
26686;SDS011;14298;50.900;4.648;2022-11-04T06:13:56;1.97;;;0.53;;
26686;SDS011;14298;50.900;4.648;2022-11-04T06:16:24;0.33;;;0.33;;
26686;SDS011;14298;50.900;4.648;2022-11-04T06:18:53;0.53;;;0.53;;
26686;SDS011;14298;50.900;4.648;2022-11-04T06:21:28;0.80;;;0.80;;
26686;SDS011;14298;50.900;4.648;2022-11-04T06:23:59;8.43;;;1.73;;
26686;SDS011;14298;50.900;4.648;2022-11-04T06:26:28;3.00;;;2.13;;
26686;SDS011;14298;50.900;4.648;2022-11-04T06:28:57;2.53;;;2.43;;
26686;SDS011;14298;50.900;4.648;2022-11-04T06:31:25;3.07;;;2.87;;
26686;SDS011;14298;50.900;4.648;2022-11-04T06:33:53;2.93;;;2.83;;
26686;SDS011;14298;50.900;4.648;2022-11-04T06:36:22;4.63;;;3.40;;
26686;SDS011;14298;50.900;4.648;2022-11-04T06:38:50;3.37;;;3.17;;
26686;SDS011;14298;50.900;4.648;2022-11-04T06:41:18;4.43;;;4.13;;
26686;SDS011;14298;50.900;4.648;2022-11-04T06:43:47;6.23;;;4.80;;
26686;SDS011;14298;50.900;4.648;2022-11-04T06:49:02;4.60;;;4.40;;
26686;SDS011;14298;50.900;4.648;2022-11-04T06:51:31;6.17;;;5.87;;
26686;SDS011;14298;50.900;4.648;2022-11-04T06:54:00;7.20;;;6.87;;
26686;SDS011;14298;50.900;4.648;2022-11-04T06:56:28;4.50;;;4.30;;
26686;SDS011;14298;50.900;4.648;2022-11-04T06:58:57;4.60;;;4.40;;
26686;SDS011;14298;50.900;4.648;2022-11-04T07:01:26;5.27;;;5.07;;
26686;SDS011;14298;50.900;4.648;2022-11-04T07:03:57;6.03;;;5.80;;
26686;SDS011;14298;50.900;4.648;2022-11-04T07:06:27;5.27;;;4.97;;
26686;SDS011;14298;50.900;4.648;2022-11-04T07:08:59;5.10;;;4.90;;
26686;SDS011;14298;50.900;4.648;2022-11-04T07:11:30;4.60;;;4.40;;
26686;SDS011;14298;50.900;4.648;2022-11-04T07:13:59;4.63;;;4.43;;
26686;SDS011;14298;50.900;4.648;2022-11-04T07:16:28;4.20;;;4.10;;
26686;SDS011;14298;50.900;4.648;2022-11-04T07:18:56;4.90;;;4.70;;
26686;SDS011;14298;50.900;4.648;2022-11-04T07:21:24;6.07;;;5.77;;
26686;SDS011;14298;50.900;4.648;2022-11-04T07:23:53;5.87;;;5.67;;
26686;SDS011;14298;50.900;4.648;2022-11-04T07:26:21;6.97;;;6.67;;
26686;SDS011;14298;50.900;4.648;2022-11-04T07:28:50;6.93;;;6.63;;
26686;SDS011;14298;50.900;4.648;2022-11-04T07:31:18;7.53;;;7.10;;
26686;SDS011;14298;50.900;4.648;2022-11-04T07:33:47;8.27;;;7.97;;
26686;SDS011;14298;50.900;4.648;2022-11-04T07:36:17;9.40;;;8.70;;
26686;SDS011;14298;50.900;4.648;2022-11-04T07:38:46;10.07;;;9.63;;
26686;SDS011;14298;50.900;4.648;2022-11-04T07:41:15;9.27;;;8.87;;
26686;SDS011;14298;50.900;4.648;2022-11-04T07:43:48;9.70;;;9.30;;
26686;SDS011;14298;50.900;4.648;2022-11-04T07:46:20;9.33;;;8.83;;
26686;SDS011;14298;50.900;4.648;2022-11-04T07:48:48;11.73;;;11.23;;
26686;SDS011;14298;50.900;4.648;2022-11-04T07:51:18;12.30;;;11.30;;
26686;SDS011;14298;50.900;4.648;2022-11-04T07:53:47;13.70;;;13.10;;
26686;SDS011;14298;50.900;4.648;2022-11-04T07:56:16;13.03;;;12.43;;
26686;SDS011;14298;50.900;4.648;2022-11-04T07:58:44;13.80;;;13.00;;
26686;SDS011;14298;50.900;4.648;2022-11-04T08:01:14;16.40;;;15.50;;
26686;SDS011;14298;50.900;4.648;2022-11-04T08:03:44;17.17;;;16.37;;
26686;SDS011;14298;50.900;4.648;2022-11-04T08:06:13;13.93;;;13.33;;
26686;SDS011;14298;50.900;4.648;2022-11-04T08:08:42;13.10;;;12.50;;
26686;SDS011;14298;50.900;4.648;2022-11-04T08:11:13;14.13;;;13.50;;
26686;SDS011;14298;50.900;4.648;2022-11-04T08:13:43;12.73;;;12.13;;
26686;SDS011;14298;50.900;4.648;2022-11-04T08:16:14;14.07;;;13.47;;
26686;SDS011;14298;50.900;4.648;2022-11-04T08:18:45;17.57;;;16.77;;
26686;SDS011;14298;50.900;4.648;2022-11-04T08:21:15;13.00;;;12.40;;
26686;SDS011;14298;50.900;4.648;2022-11-04T08:23:43;16.40;;;15.60;;
26686;SDS011;14298;50.900;4.648;2022-11-04T08:26:14;12.20;;;11.60;;
26686;SDS011;14298;50.900;4.648;2022-11-04T08:28:44;12.53;;;12.03;;
26686;SDS011;14298;50.900;4.648;2022-11-04T08:31:14;13.00;;;12.40;;
26686;SDS011;14298;50.900;4.648;2022-11-04T08:33:47;14.90;;;14.10;;
26686;SDS011;14298;50.900;4.648;2022-11-04T08:36:17;14.70;;;14.00;;
26686;SDS011;14298;50.900;4.648;2022-11-04T08:38:47;15.73;;;15.03;;
26686;SDS011;14298;50.900;4.648;2022-11-04T08:41:17;11.03;;;10.53;;
26686;SDS011;14298;50.900;4.648;2022-11-04T08:43:47;11.83;;;11.27;;
26686;SDS011;14298;50.900;4.648;2022-11-04T08:46:15;11.30;;;10.80;;
26686;SDS011;14298;50.900;4.648;2022-11-04T08:48:44;13.20;;;12.60;;
26686;SDS011;14298;50.900;4.648;2022-11-04T08:51:19;16.33;;;15.53;;
26686;SDS011;14298;50.900;4.648;2022-11-04T08:53:49;14.13;;;13.50;;
26686;SDS011;14298;50.900;4.648;2022-11-04T08:56:19;12.17;;;11.57;;
26686;SDS011;14298;50.900;4.648;2022-11-04T08:58:59;15.50;;;14.80;;
26686;SDS011;14298;50.900;4.648;2022-11-04T09:01:28;12.33;;;11.63;;
26686;SDS011;14298;50.900;4.648;2022-11-04T09:03:59;14.53;;;13.87;;
26686;SDS011;14298;50.900;4.648;2022-11-04T09:06:28;15.43;;;14.73;;
26686;SDS011;14298;50.900;4.648;2022-11-04T09:08:59;17.27;;;16.47;;
26686;SDS011;14298;50.900;4.648;2022-11-04T09:11:30;14.80;;;14.10;;
26686;SDS011;14298;50.900;4.648;2022-11-04T09:14:00;11.20;;;10.67;;
26686;SDS011;14298;50.900;4.648;2022-11-04T09:16:30;12.50;;;11.70;;
26686;SDS011;14298;50.900;4.648;2022-11-04T09:19:00;14.57;;;13.77;;
26686;SDS011;14298;50.900;4.648;2022-11-04T09:21:29;15.23;;;14.53;;
26686;SDS011;14298;50.900;4.648;2022-11-04T09:23:58;10.90;;;10.40;;
26686;SDS011;14298;50.900;4.648;2022-11-04T09:26:26;14.47;;;13.77;;
26686;SDS011;14298;50.900;4.648;2022-11-04T09:28:55;16.30;;;15.50;;
26686;SDS011;14298;50.900;4.648;2022-11-04T09:31:25;17.47;;;16.67;;
26686;SDS011;14298;50.900;4.648;2022-11-04T09:33:55;16.40;;;15.40;;
26686;SDS011;14298;50.900;4.648;2022-11-04T09:36:24;14.67;;;13.97;;
26686;SDS011;14298;50.900;4.648;2022-11-04T09:38:54;18.67;;;17.77;;
26686;SDS011;14298;50.900;4.648;2022-11-04T09:46:40;18.60;;;17.70;;
26686;SDS011;14298;50.900;4.648;2022-11-04T09:49:11;14.13;;;13.53;;
26686;SDS011;14298;50.900;4.648;2022-11-04T09:51:42;18.13;;;17.23;;
26686;SDS011;14298;50.900;4.648;2022-11-04T09:54:15;19.23;;;18.33;;
26686;SDS011;14298;50.900;4.648;2022-11-04T09:56:44;15.80;;;15.10;;
26686;SDS011;14298;50.900;4.648;2022-11-04T09:59:19;10.80;;;9.90;;
26686;SDS011;14298;50.900;4.648;2022-11-04T10:07:34;13.17;;;12.33;;
26686;SDS011;14298;50.900;4.648;2022-11-04T10:10:19;13.83;;;13.20;;
26686;SDS011;14298;50.900;4.648;2022-11-04T10:13:06;13.33;;;12.73;;
26686;SDS011;14298;50.900;4.648;2022-11-04T10:15:38;9.20;;;8.73;;
26686;SDS011;14298;50.900;4.648;2022-11-04T10:18:13;9.70;;;9.30;;
26686;SDS011;14298;50.900;4.648;2022-11-04T10:25:46;15.27;;;13.93;;
26686;SDS011;14298;50.900;4.648;2022-11-04T10:28:17;16.77;;;15.23;;
26686;SDS011;14298;50.900;4.648;2022-11-04T10:30:48;12.80;;;12.20;;
26686;SDS011;14298;50.900;4.648;2022-11-04T10:36:08;9.33;;;8.93;;
26686;SDS011;14298;50.900;4.648;2022-11-04T10:38:43;10.03;;;9.53;;
26686;SDS011;14298;50.900;4.648;2022-11-04T10:44:00;11.40;;;10.80;;
26686;SDS011;14298;50.900;4.648;2022-11-04T10:46:54;7.53;;;7.20;;
26686;SDS011;14298;50.900;4.648;2022-11-04T10:52:16;9.47;;;8.97;;
26686;SDS011;14298;50.900;4.648;2022-11-04T10:54:46;10.77;;;10.27;;
26686;SDS011;14298;50.900;4.648;2022-11-04T10:57:16;7.30;;;7.00;;
26686;SDS011;14298;50.900;4.648;2022-11-04T10:59:49;6.70;;;6.40;;
26686;SDS011;14298;50.900;4.648;2022-11-04T11:07:47;9.13;;;8.53;;
26686;SDS011;14298;50.900;4.648;2022-11-04T11:10:29;10.00;;;9.47;;
26686;SDS011;14298;50.900;4.648;2022-11-04T11:12:56;5.77;;;5.57;;
26686;SDS011;14298;50.900;4.648;2022-11-04T11:18:16;6.90;;;6.50;;
26686;SDS011;14298;50.900;4.648;2022-11-04T11:20:47;10.07;;;9.47;;
26686;SDS011;14298;50.900;4.648;2022-11-04T11:23:38;9.97;;;9.40;;
26686;SDS011;14298;50.900;4.648;2022-11-04T11:26:12;10.57;;;10.07;;
26686;SDS011;14298;50.900;4.648;2022-11-04T11:28:52;10.27;;;9.70;;
26686;SDS011;14298;50.900;4.648;2022-11-04T11:31:23;6.87;;;6.53;;
26686;SDS011;14298;50.900;4.648;2022-11-04T11:33:56;8.73;;;8.30;;
26686;SDS011;14298;50.900;4.648;2022-11-04T11:36:30;10.20;;;9.60;;
26686;SDS011;14298;50.900;4.648;2022-11-04T11:42:05;11.50;;;10.80;;
26686;SDS011;14298;50.900;4.648;2022-11-04T11:44:25;10.60;;;9.83;;
26686;SDS011;14298;50.900;4.648;2022-11-04T11:47:56;9.93;;;9.43;;
26686;SDS011;14298;50.900;4.648;2022-11-04T11:52:48;9.57;;;8.77;;
26686;SDS011;14298;50.900;4.648;2022-11-04T11:57:59;9.77;;;9.07;;
26686;SDS011;14298;50.900;4.648;2022-11-04T12:00:27;14.67;;;9.73;;
26686;SDS011;14298;50.900;4.648;2022-11-04T12:03:14;9.83;;;9.33;;
26686;SDS011;14298;50.900;4.648;2022-11-04T12:14:23;4.27;;;4.07;;
26686;SDS011;14298;50.900;4.648;2022-11-04T12:16:57;5.70;;;5.40;;
26686;SDS011;14298;50.900;4.648;2022-11-04T12:25:27;6.80;;;6.40;;
26686;SDS011;14298;50.900;4.648;2022-11-04T12:28:06;3.93;;;3.73;;
26686;SDS011;14298;50.900;4.648;2022-11-04T12:30:43;3.70;;;3.50;;
26686;SDS011;14298;50.900;4.648;2022-11-04T12:33:13;3.70;;;3.20;;
26686;SDS011;14298;50.900;4.648;2022-11-04T12:36:06;3.70;;;3.23;;
26686;SDS011;14298;50.900;4.648;2022-11-04T12:41:35;4.90;;;3.33;;
26686;SDS011;14298;50.900;4.648;2022-11-04T12:44:07;4.00;;;3.70;;
26686;SDS011;14298;50.900;4.648;2022-11-04T12:46:43;3.47;;;3.20;;
26686;SDS011;14298;50.900;4.648;2022-11-04T12:52:12;3.37;;;3.07;;
26686;SDS011;14298;50.900;4.648;2022-11-04T12:57:43;3.37;;;2.63;;
26686;SDS011;14298;50.900;4.648;2022-11-04T13:00:19;4.43;;;3.07;;
26686;SDS011;14298;50.900;4.648;2022-11-04T13:03:00;2.80;;;2.60;;
26686;SDS011;14298;50.900;4.648;2022-11-04T13:11:22;5.13;;;3.77;;
26686;SDS011;14298;50.900;4.648;2022-11-04T13:14:02;4.87;;;3.97;;
26686;SDS011;14298;50.900;4.648;2022-11-04T13:16:34;3.20;;;2.87;;
26686;SDS011;14298;50.900;4.648;2022-11-04T13:22:10;2.87;;;2.43;;
26686;SDS011;14298;50.900;4.648;2022-11-04T13:27:21;4.03;;;3.40;;
26686;SDS011;14298;50.900;4.648;2022-11-04T13:29:56;4.33;;;3.43;;
26686;SDS011;14298;50.900;4.648;2022-11-04T13:32:34;3.50;;;3.20;;
26686;SDS011;14298;50.900;4.648;2022-11-04T13:35:18;2.83;;;2.57;;
26686;SDS011;14298;50.900;4.648;2022-11-04T13:37:58;4.27;;;3.30;;
26686;SDS011;14298;50.900;4.648;2022-11-04T13:40:44;4.53;;;3.27;;
26686;SDS011;14298;50.900;4.648;2022-11-04T13:43:17;3.60;;;3.00;;
26686;SDS011;14298;50.900;4.648;2022-11-04T13:46:14;3.83;;;3.20;;
26686;SDS011;14298;50.900;4.648;2022-11-04T13:48:49;3.93;;;3.27;;
26686;SDS011;14298;50.900;4.648;2022-11-04T13:51:08;3.73;;;3.43;;
26686;SDS011;14298;50.900;4.648;2022-11-04T13:53:52;4.70;;;3.80;;
26686;SDS011;14298;50.900;4.648;2022-11-04T13:56:27;3.47;;;3.17;;
26686;SDS011;14298;50.900;4.648;2022-11-04T14:04:39;2.93;;;2.63;;
26686;SDS011;14298;50.900;4.648;2022-11-04T14:07:15;3.03;;;2.47;;
26686;SDS011;14298;50.900;4.648;2022-11-04T14:12:31;5.13;;;3.67;;
26686;SDS011;14298;50.900;4.648;2022-11-04T14:15:03;4.03;;;3.30;;
26686;SDS011;14298;50.900;4.648;2022-11-04T14:25:30;2.20;;;2.00;;
26686;SDS011;14298;50.900;4.648;2022-11-04T14:30:50;1.97;;;1.80;;
26686;SDS011;14298;50.900;4.648;2022-11-04T14:33:37;4.97;;;1.37;;
26686;SDS011;14298;50.900;4.648;2022-11-04T14:39:05;1.53;;;1.43;;
26686;SDS011;14298;50.900;4.648;2022-11-04T14:41:54;1.73;;;1.63;;
26686;SDS011;14298;50.900;4.648;2022-11-04T14:47:15;1.77;;;1.63;;
26686;SDS011;14298;50.900;4.648;2022-11-04T14:57:47;9.20;;;0.63;;
26686;SDS011;14298;50.900;4.648;2022-11-04T15:00:30;0.57;;;0.57;;
26686;SDS011;14298;50.900;4.648;2022-11-04T15:03:12;0.60;;;0.60;;
26686;SDS011;14298;50.900;4.648;2022-11-04T15:05:45;0.60;;;0.60;;
26686;SDS011;14298;50.900;4.648;2022-11-04T15:08:36;0.50;;;0.50;;
26686;SDS011;14298;50.900;4.648;2022-11-04T15:13:44;0.43;;;0.43;;
26686;SDS011;14298;50.900;4.648;2022-11-04T15:16:15;1.13;;;0.63;;
26686;SDS011;14298;50.900;4.648;2022-11-04T15:18:49;0.37;;;0.37;;
26686;SDS011;14298;50.900;4.648;2022-11-04T15:21:19;0.40;;;0.40;;
26686;SDS011;14298;50.900;4.648;2022-11-04T15:23:49;0.30;;;0.30;;
26686;SDS011;14298;50.900;4.648;2022-11-04T15:26:29;0.47;;;0.47;;
26686;SDS011;14298;50.900;4.648;2022-11-04T15:29:03;1.50;;;0.40;;
26686;SDS011;14298;50.900;4.648;2022-11-04T15:31:38;0.33;;;0.33;;
26686;SDS011;14298;50.900;4.648;2022-11-04T15:34:10;12.27;;;0.40;;
26686;SDS011;14298;50.900;4.648;2022-11-04T15:36:41;0.20;;;0.20;;
26686;SDS011;14298;50.900;4.648;2022-11-04T15:39:12;0.10;;;0.10;;
26686;SDS011;14298;50.900;4.648;2022-11-04T15:41:42;0.20;;;0.20;;
26686;SDS011;14298;50.900;4.648;2022-11-04T15:44:30;0.30;;;0.30;;
26686;SDS011;14298;50.900;4.648;2022-11-04T15:47:00;0.33;;;0.33;;
26686;SDS011;14298;50.900;4.648;2022-11-04T15:49:31;0.60;;;0.53;;
26686;SDS011;14298;50.900;4.648;2022-11-04T15:54:53;0.43;;;0.43;;
26686;SDS011;14298;50.900;4.648;2022-11-04T15:57:38;0.50;;;0.50;;
26686;SDS011;14298;50.900;4.648;2022-11-04T16:00:08;0.40;;;0.40;;
26686;SDS011;14298;50.900;4.648;2022-11-04T16:02:57;0.30;;;0.30;;
26686;SDS011;14298;50.900;4.648;2022-11-04T16:05:30;0.20;;;0.20;;
26686;SDS011;14298;50.900;4.648;2022-11-04T16:08:20;0.73;;;0.73;;
26686;SDS011;14298;50.900;4.648;2022-11-04T16:11:06;1.10;;;1.03;;
26686;SDS011;14298;50.900;4.648;2022-11-04T16:13:37;0.30;;;0.30;;
26686;SDS011;14298;50.900;4.648;2022-11-04T16:18:55;0.93;;;0.70;;
26686;SDS011;14298;50.900;4.648;2022-11-04T16:21:29;0.50;;;0.50;;
26686;SDS011;14298;50.900;4.648;2022-11-04T16:24:04;0.30;;;0.30;;
26686;SDS011;14298;50.900;4.648;2022-11-04T16:26:42;0.30;;;0.30;;
26686;SDS011;14298;50.900;4.648;2022-11-04T16:32:06;0.60;;;0.60;;
26686;SDS011;14298;50.900;4.648;2022-11-04T16:34:47;0.50;;;0.50;;
26686;SDS011;14298;50.900;4.648;2022-11-04T16:37:16;1.77;;;1.10;;
26686;SDS011;14298;50.900;4.648;2022-11-04T16:39:44;0.43;;;0.43;;
26686;SDS011;14298;50.900;4.648;2022-11-04T16:42:13;0.50;;;0.50;;
26686;SDS011;14298;50.900;4.648;2022-11-04T16:44:46;0.87;;;0.87;;
26686;SDS011;14298;50.900;4.648;2022-11-04T16:47:17;0.90;;;0.70;;
26686;SDS011;14298;50.900;4.648;2022-11-04T16:52:35;0.50;;;0.50;;
26686;SDS011;14298;50.900;4.648;2022-11-04T16:55:04;0.73;;;0.70;;
26686;SDS011;14298;50.900;4.648;2022-11-04T16:57:33;1.33;;;1.20;;
26686;SDS011;14298;50.900;4.648;2022-11-04T17:00:02;1.90;;;1.53;;
26686;SDS011;14298;50.900;4.648;2022-11-04T17:02:32;0.67;;;0.67;;
26686;SDS011;14298;50.900;4.648;2022-11-04T17:05:06;1.07;;;0.97;;
26686;SDS011;14298;50.900;4.648;2022-11-04T17:07:36;2.73;;;1.03;;
26686;SDS011;14298;50.900;4.648;2022-11-04T17:10:11;1.47;;;1.30;;
26686;SDS011;14298;50.900;4.648;2022-11-04T17:12:39;1.27;;;1.20;;
26686;SDS011;14298;50.900;4.648;2022-11-04T17:15:08;0.90;;;0.90;;
26686;SDS011;14298;50.900;4.648;2022-11-04T17:17:37;0.67;;;0.67;;
26686;SDS011;14298;50.900;4.648;2022-11-04T17:20:06;0.70;;;0.70;;
26686;SDS011;14298;50.900;4.648;2022-11-04T17:22:36;0.80;;;0.80;;
26686;SDS011;14298;50.900;4.648;2022-11-04T17:25:09;0.73;;;0.73;;
26686;SDS011;14298;50.900;4.648;2022-11-04T17:27:48;1.07;;;1.03;;
26686;SDS011;14298;50.900;4.648;2022-11-04T17:30:16;0.67;;;0.60;;
26686;SDS011;14298;50.900;4.648;2022-11-04T17:32:47;1.73;;;1.17;;
26686;SDS011;14298;50.900;4.648;2022-11-04T17:35:16;0.70;;;0.70;;
26686;SDS011;14298;50.900;4.648;2022-11-04T17:37:45;0.93;;;0.80;;
26686;SDS011;14298;50.900;4.648;2022-11-04T17:40:14;0.80;;;0.80;;
26686;SDS011;14298;50.900;4.648;2022-11-04T17:42:44;1.33;;;1.27;;
26686;SDS011;14298;50.900;4.648;2022-11-04T17:45:31;1.57;;;1.40;;
26686;SDS011;14298;50.900;4.648;2022-11-04T17:48:03;1.57;;;0.93;;
26686;SDS011;14298;50.900;4.648;2022-11-04T17:50:32;2.27;;;1.60;;
26686;SDS011;14298;50.900;4.648;2022-11-04T17:53:00;2.80;;;1.27;;
26686;SDS011;14298;50.900;4.648;2022-11-04T17:55:28;1.60;;;1.43;;
26686;SDS011;14298;50.900;4.648;2022-11-04T17:57:57;1.77;;;1.50;;
26686;SDS011;14298;50.900;4.648;2022-11-04T18:00:25;1.30;;;0.67;;
26686;SDS011;14298;50.900;4.648;2022-11-04T18:02:55;2.17;;;1.17;;
26686;SDS011;14298;50.900;4.648;2022-11-04T18:05:23;3.67;;;1.77;;
26686;SDS011;14298;50.900;4.648;2022-11-04T18:07:52;1.73;;;1.63;;
26686;SDS011;14298;50.900;4.648;2022-11-04T18:10:22;2.53;;;2.30;;
26686;SDS011;14298;50.900;4.648;2022-11-04T18:12:50;1.57;;;1.23;;
26686;SDS011;14298;50.900;4.648;2022-11-04T18:15:18;1.37;;;1.27;;